sensor_id;sensor_type;location;lat;lon;timestamp;temperature;humidity
17053;DHT22;8643;48.824;11.422;2024-03-02T00:01:39;6.10;99.90
17053;DHT22;8643;48.824;11.422;2024-03-02T00:04:08;6.00;99.90
17053;DHT22;8643;48.824;11.422;2024-03-02T00:06:36;6.10;99.90
17053;DHT22;8643;48.824;11.422;2024-03-02T00:09:05;6.10;99.90
17053;DHT22;8643;48.824;11.422;2024-03-02T00:11:38;6.10;99.90
17053;DHT22;8643;48.824;11.422;2024-03-02T00:14:07;6.10;99.90
17053;DHT22;8643;48.824;11.422;2024-03-02T00:16:36;6.10;99.90
17053;DHT22;8643;48.824;11.422;2024-03-02T00:19:07;6.10;99.90
17053;DHT22;8643;48.824;11.422;2024-03-02T00:21:37;6.10;99.90
17053;DHT22;8643;48.824;11.422;2024-03-02T00:24:12;6.10;99.90
17053;DHT22;8643;48.824;11.422;2024-03-02T00:26:48;6.00;99.90
17053;DHT22;8643;48.824;11.422;2024-03-02T00:29:17;6.00;99.90
17053;DHT22;8643;48.824;11.422;2024-03-02T00:31:47;6.00;99.90
17053;DHT22;8643;48.824;11.422;2024-03-02T00:34:18;6.00;99.90
17053;DHT22;8643;48.824;11.422;2024-03-02T00:36:46;5.90;99.90
17053;DHT22;8643;48.824;11.422;2024-03-02T00:39:16;6.00;99.90
17053;DHT22;8643;48.824;11.422;2024-03-02T00:41:45;5.90;99.90
17053;DHT22;8643;48.824;11.422;2024-03-02T00:44:15;5.90;99.90
17053;DHT22;8643;48.824;11.422;2024-03-02T00:46:44;6.00;99.90
17053;DHT22;8643;48.824;11.422;2024-03-02T00:49:18;6.00;99.90
17053;DHT22;8643;48.824;11.422;2024-03-02T00:51:50;6.00;99.90
17053;DHT22;8643;48.824;11.422;2024-03-02T00:54:21;6.00;99.90
17053;DHT22;8643;48.824;11.422;2024-03-02T00:56:51;6.00;99.90
17053;DHT22;8643;48.824;11.422;2024-03-02T00:59:22;6.00;99.90
17053;DHT22;8643;48.824;11.422;2024-03-02T01:01:51;6.00;99.90
17053;DHT22;8643;48.824;11.422;2024-03-02T01:04:22;6.00;99.90
17053;DHT22;8643;48.824;11.422;2024-03-02T01:06:51;6.00;99.90
17053;DHT22;8643;48.824;11.422;2024-03-02T01:09:19;6.00;99.90
17053;DHT22;8643;48.824;11.422;2024-03-02T01:11:48;6.00;99.90
17053;DHT22;8643;48.824;11.422;2024-03-02T01:14:16;6.00;99.90
17053;DHT22;8643;48.824;11.422;2024-03-02T01:16:45;6.00;99.90
17053;DHT22;8643;48.824;11.422;2024-03-02T01:19:13;6.00;99.90
17053;DHT22;8643;48.824;11.422;2024-03-02T01:21:44;6.00;99.90
17053;DHT22;8643;48.824;11.422;2024-03-02T01:24:12;5.90;99.90
17053;DHT22;8643;48.824;11.422;2024-03-02T01:26:41;5.90;99.90
17053;DHT22;8643;48.824;11.422;2024-03-02T01:29:10;6.00;99.90
17053;DHT22;8643;48.824;11.422;2024-03-02T01:31:38;5.90;99.90
17053;DHT22;8643;48.824;11.422;2024-03-02T01:34:08;5.90;99.90
17053;DHT22;8643;48.824;11.422;2024-03-02T01:36:37;5.90;99.90
17053;DHT22;8643;48.824;11.422;2024-03-02T01:39:07;5.90;99.90
17053;DHT22;8643;48.824;11.422;2024-03-02T01:41:36;5.80;99.90
17053;DHT22;8643;48.824;11.422;2024-03-02T01:44:05;5.80;99.90
17053;DHT22;8643;48.824;11.422;2024-03-02T01:46:33;5.80;99.90
17053;DHT22;8643;48.824;11.422;2024-03-02T01:49:02;5.80;99.90
17053;DHT22;8643;48.824;11.422;2024-03-02T01:51:31;5.70;99.90
17053;DHT22;8643;48.824;11.422;2024-03-02T01:54:00;5.70;99.90
17053;DHT22;8643;48.824;11.422;2024-03-02T01:56:30;5.70;99.90
17053;DHT22;8643;48.824;11.422;2024-03-02T01:58:59;5.70;99.90
17053;DHT22;8643;48.824;11.422;2024-03-02T02:01:28;5.70;99.90
17053;DHT22;8643;48.824;11.422;2024-03-02T02:03:57;5.80;99.90
17053;DHT22;8643;48.824;11.422;2024-03-02T02:06:26;5.70;99.90
17053;DHT22;8643;48.824;11.422;2024-03-02T02:08:55;5.60;99.90
17053;DHT22;8643;48.824;11.422;2024-03-02T02:11:24;5.70;99.90
17053;DHT22;8643;48.824;11.422;2024-03-02T02:13:55;5.60;99.90
17053;DHT22;8643;48.824;11.422;2024-03-02T02:16:23;5.70;99.90
17053;DHT22;8643;48.824;11.422;2024-03-02T02:18:52;5.60;99.90
17053;DHT22;8643;48.824;11.422;2024-03-02T02:21:24;5.60;99.90
17053;DHT22;8643;48.824;11.422;2024-03-02T02:23:53;5.70;99.90
17053;DHT22;8643;48.824;11.422;2024-03-02T02:26:22;5.70;99.90
17053;DHT22;8643;48.824;11.422;2024-03-02T02:28:50;5.70;99.90
17053;DHT22;8643;48.824;11.422;2024-03-02T02:31:19;5.70;99.90
17053;DHT22;8643;48.824;11.422;2024-03-02T02:36:17;5.70;99.90
17053;DHT22;8643;48.824;11.422;2024-03-02T02:38:48;5.80;99.90
17053;DHT22;8643;48.824;11.422;2024-03-02T02:43:47;5.80;99.90
17053;DHT22;8643;48.824;11.422;2024-03-02T02:46:15;5.80;99.90
17053;DHT22;8643;48.824;11.422;2024-03-02T02:48:44;5.80;99.90
17053;DHT22;8643;48.824;11.422;2024-03-02T02:51:12;5.80;99.90
17053;DHT22;8643;48.824;11.422;2024-03-02T02:53:41;5.80;99.90
17053;DHT22;8643;48.824;11.422;2024-03-02T02:56:11;5.80;99.90
17053;DHT22;8643;48.824;11.422;2024-03-02T02:58:40;5.90;99.90
17053;DHT22;8643;48.824;11.422;2024-03-02T03:01:09;5.90;99.90
17053;DHT22;8643;48.824;11.422;2024-03-02T03:03:38;5.90;99.90
17053;DHT22;8643;48.824;11.422;2024-03-02T03:06:07;5.90;99.90
17053;DHT22;8643;48.824;11.422;2024-03-02T03:08:35;5.90;99.90
17053;DHT22;8643;48.824;11.422;2024-03-02T03:11:04;5.90;99.90
17053;DHT22;8643;48.824;11.422;2024-03-02T03:13:34;5.90;99.90
17053;DHT22;8643;48.824;11.422;2024-03-02T03:16:03;5.80;99.90
17053;DHT22;8643;48.824;11.422;2024-03-02T03:18:32;5.80;99.90
17053;DHT22;8643;48.824;11.422;2024-03-02T03:23:29;5.80;99.90
17053;DHT22;8643;48.824;11.422;2024-03-02T03:25:58;5.80;99.90
17053;DHT22;8643;48.824;11.422;2024-03-02T03:28:27;5.80;99.90
17053;DHT22;8643;48.824;11.422;2024-03-02T03:30:57;5.80;99.90
17053;DHT22;8643;48.824;11.422;2024-03-02T03:33:26;5.80;99.90
17053;DHT22;8643;48.824;11.422;2024-03-02T03:35:54;5.80;99.90
17053;DHT22;8643;48.824;11.422;2024-03-02T03:38:23;5.80;99.90
17053;DHT22;8643;48.824;11.422;2024-03-02T03:40:51;5.80;99.90
17053;DHT22;8643;48.824;11.422;2024-03-02T03:43:20;5.90;99.90
17053;DHT22;8643;48.824;11.422;2024-03-02T03:45:49;5.90;99.90
17053;DHT22;8643;48.824;11.422;2024-03-02T03:48:19;5.80;99.90
17053;DHT22;8643;48.824;11.422;2024-03-02T03:50:47;5.80;99.90
17053;DHT22;8643;48.824;11.422;2024-03-02T03:53:16;5.80;99.90
17053;DHT22;8643;48.824;11.422;2024-03-02T03:55:44;5.80;99.90
17053;DHT22;8643;48.824;11.422;2024-03-02T03:58:13;5.80;99.90
17053;DHT22;8643;48.824;11.422;2024-03-02T04:00:46;5.70;99.90
17053;DHT22;8643;48.824;11.422;2024-03-02T04:03:15;5.70;99.90
17053;DHT22;8643;48.824;11.422;2024-03-02T04:05:45;5.70;99.90
17053;DHT22;8643;48.824;11.422;2024-03-02T04:08:13;5.70;99.90
17053;DHT22;8643;48.824;11.422;2024-03-02T04:10:42;5.70;99.90
17053;DHT22;8643;48.824;11.422;2024-03-02T04:13:10;5.70;99.90
17053;DHT22;8643;48.824;11.422;2024-03-02T04:15:38;5.70;99.90
17053;DHT22;8643;48.824;11.422;2024-03-02T04:18:07;5.70;99.90
17053;DHT22;8643;48.824;11.422;2024-03-02T04:20:36;5.70;99.90
17053;DHT22;8643;48.824;11.422;2024-03-02T04:23:05;5.70;99.90
17053;DHT22;8643;48.824;11.422;2024-03-02T04:25:35;5.70;99.90
17053;DHT22;8643;48.824;11.422;2024-03-02T04:28:03;5.70;99.90
17053;DHT22;8643;48.824;11.422;2024-03-02T04:30:32;5.70;99.90
17053;DHT22;8643;48.824;11.422;2024-03-02T04:33:00;5.70;99.90
17053;DHT22;8643;48.824;11.422;2024-03-02T04:35:29;5.70;99.90
17053;DHT22;8643;48.824;11.422;2024-03-02T04:37:58;5.70;99.90
17053;DHT22;8643;48.824;11.422;2024-03-02T04:40:28;5.80;99.90
17053;DHT22;8643;48.824;11.422;2024-03-02T04:42:56;5.80;99.90
17053;DHT22;8643;48.824;11.422;2024-03-02T04:45:26;5.80;99.90
17053;DHT22;8643;48.824;11.422;2024-03-02T04:47:54;5.70;99.90
17053;DHT22;8643;48.824;11.422;2024-03-02T04:50:23;5.80;99.90
17053;DHT22;8643;48.824;11.422;2024-03-02T04:52:51;5.70;99.90
17053;DHT22;8643;48.824;11.422;2024-03-02T04:55:20;5.70;99.90
17053;DHT22;8643;48.824;11.422;2024-03-02T04:58:13;5.80;99.90
17053;DHT22;8643;48.824;11.422;2024-03-02T05:00:42;5.70;99.90
17053;DHT22;8643;48.824;11.422;2024-03-02T05:03:13;5.60;99.90
17053;DHT22;8643;48.824;11.422;2024-03-02T05:05:42;5.60;99.90
17053;DHT22;8643;48.824;11.422;2024-03-02T05:08:11;5.50;99.90
17053;DHT22;8643;48.824;11.422;2024-03-02T05:10:40;5.40;99.90
17053;DHT22;8643;48.824;11.422;2024-03-02T05:13:08;5.40;99.90
17053;DHT22;8643;48.824;11.422;2024-03-02T05:15:38;5.30;99.90
17053;DHT22;8643;48.824;11.422;2024-03-02T05:18:06;5.30;99.90
17053;DHT22;8643;48.824;11.422;2024-03-02T05:20:34;5.20;99.90
17053;DHT22;8643;48.824;11.422;2024-03-02T05:23:03;5.20;99.90
17053;DHT22;8643;48.824;11.422;2024-03-02T05:25:32;5.10;99.90
17053;DHT22;8643;48.824;11.422;2024-03-02T05:28:02;5.10;99.90
17053;DHT22;8643;48.824;11.422;2024-03-02T05:30:31;5.10;99.90
17053;DHT22;8643;48.824;11.422;2024-03-02T05:33:01;5.00;99.90
17053;DHT22;8643;48.824;11.422;2024-03-02T05:35:29;5.00;99.90
17053;DHT22;8643;48.824;11.422;2024-03-02T05:37:58;5.00;99.90
17053;DHT22;8643;48.824;11.422;2024-03-02T05:40:26;4.80;99.90
17053;DHT22;8643;48.824;11.422;2024-03-02T05:42:55;4.90;99.90
17053;DHT22;8643;48.824;11.422;2024-03-02T05:45:23;4.80;99.90
17053;DHT22;8643;48.824;11.422;2024-03-02T05:47:52;4.70;99.90
17053;DHT22;8643;48.824;11.422;2024-03-02T05:50:22;4.70;99.90
17053;DHT22;8643;48.824;11.422;2024-03-02T05:52:50;4.60;99.90
17053;DHT22;8643;48.824;11.422;2024-03-02T05:55:19;6.20;99.90
17053;DHT22;8643;48.824;11.422;2024-03-02T05:57:47;4.50;99.90
17053;DHT22;8643;48.824;11.422;2024-03-02T06:00:29;4.50;99.90
17053;DHT22;8643;48.824;11.422;2024-03-02T06:02:58;4.50;99.90
17053;DHT22;8643;48.824;11.422;2024-03-02T06:05:28;4.40;99.90
17053;DHT22;8643;48.824;11.422;2024-03-02T06:07:56;4.40;99.90
17053;DHT22;8643;48.824;11.422;2024-03-02T06:10:25;4.40;99.90
17053;DHT22;8643;48.824;11.422;2024-03-02T06:12:53;4.40;99.90
17053;DHT22;8643;48.824;11.422;2024-03-02T06:15:22;4.40;99.90
17053;DHT22;8643;48.824;11.422;2024-03-02T06:17:51;4.40;99.90
17053;DHT22;8643;48.824;11.422;2024-03-02T06:22:50;4.40;99.90
17053;DHT22;8643;48.824;11.422;2024-03-02T06:25:18;4.40;99.90
17053;DHT22;8643;48.824;11.422;2024-03-02T06:27:46;4.50;99.90
17053;DHT22;8643;48.824;11.422;2024-03-02T06:30:15;4.50;99.90
17053;DHT22;8643;48.824;11.422;2024-03-02T06:35:13;4.50;99.90
17053;DHT22;8643;48.824;11.422;2024-03-02T06:37:42;4.50;99.90
17053;DHT22;8643;48.824;11.422;2024-03-02T06:40:12;4.50;99.90
17053;DHT22;8643;48.824;11.422;2024-03-02T06:42:41;4.60;99.90
17053;DHT22;8643;48.824;11.422;2024-03-02T06:45:09;4.60;99.90
17053;DHT22;8643;48.824;11.422;2024-03-02T06:47:38;4.70;99.90
17053;DHT22;8643;48.824;11.422;2024-03-02T06:50:07;4.80;99.90
17053;DHT22;8643;48.824;11.422;2024-03-02T06:52:36;4.80;99.90
17053;DHT22;8643;48.824;11.422;2024-03-02T06:55:06;4.90;99.90
17053;DHT22;8643;48.824;11.422;2024-03-02T06:57:36;5.00;99.90
17053;DHT22;8643;48.824;11.422;2024-03-02T07:00:05;5.10;99.90
17053;DHT22;8643;48.824;11.422;2024-03-02T07:02:36;5.30;99.90
17053;DHT22;8643;48.824;11.422;2024-03-02T07:05:05;5.50;99.90
17053;DHT22;8643;48.824;11.422;2024-03-02T07:07:34;5.70;99.90
17053;DHT22;8643;48.824;11.422;2024-03-02T07:10:04;5.90;99.90
17053;DHT22;8643;48.824;11.422;2024-03-02T07:12:36;6.10;99.90
17053;DHT22;8643;48.824;11.422;2024-03-02T07:15:05;6.30;99.90
17053;DHT22;8643;48.824;11.422;2024-03-02T07:17:57;5.90;99.90
17053;DHT22;8643;48.824;11.422;2024-03-02T07:20:25;6.50;99.90
17053;DHT22;8643;48.824;11.422;2024-03-02T07:22:53;6.60;99.90
17053;DHT22;8643;48.824;11.422;2024-03-02T07:25:22;6.80;99.90
17053;DHT22;8643;48.824;11.422;2024-03-02T07:27:55;7.20;99.90
17053;DHT22;8643;48.824;11.422;2024-03-02T07:30:24;7.40;99.90
17053;DHT22;8643;48.824;11.422;2024-03-02T07:32:52;7.60;99.90
17053;DHT22;8643;48.824;11.422;2024-03-02T07:35:21;7.50;99.90
17053;DHT22;8643;48.824;11.422;2024-03-02T07:37:53;7.80;99.90
17053;DHT22;8643;48.824;11.422;2024-03-02T07:40:22;8.00;99.90
17053;DHT22;8643;48.824;11.422;2024-03-02T07:42:51;8.30;99.90
17053;DHT22;8643;48.824;11.422;2024-03-02T07:45:22;8.50;99.90
17053;DHT22;8643;48.824;11.422;2024-03-02T07:47:50;8.50;99.90
17053;DHT22;8643;48.824;11.422;2024-03-02T07:50:19;8.60;99.90
17053;DHT22;8643;48.824;11.422;2024-03-02T07:52:48;8.00;99.90
17053;DHT22;8643;48.824;11.422;2024-03-02T07:55:16;8.10;99.90
17053;DHT22;8643;48.824;11.422;2024-03-02T07:57:45;8.10;99.90
17053;DHT22;8643;48.824;11.422;2024-03-02T08:00:14;8.00;99.90
17053;DHT22;8643;48.824;11.422;2024-03-02T08:02:44;8.10;99.90
17053;DHT22;8643;48.824;11.422;2024-03-02T08:05:13;8.20;99.90
17053;DHT22;8643;48.824;11.422;2024-03-02T08:07:44;8.10;99.90
17053;DHT22;8643;48.824;11.422;2024-03-02T08:10:13;8.20;99.90
17053;DHT22;8643;48.824;11.422;2024-03-02T08:12:42;8.10;99.90
17053;DHT22;8643;48.824;11.422;2024-03-02T08:15:11;8.00;99.90
17053;DHT22;8643;48.824;11.422;2024-03-02T08:17:40;7.80;99.90
17053;DHT22;8643;48.824;11.422;2024-03-02T08:20:17;7.80;99.90
17053;DHT22;8643;48.824;11.422;2024-03-02T08:22:46;7.70;99.90
17053;DHT22;8643;48.824;11.422;2024-03-02T08:25:15;7.70;99.90
17053;DHT22;8643;48.824;11.422;2024-03-02T08:27:43;7.60;99.90
17053;DHT22;8643;48.824;11.422;2024-03-02T08:30:13;7.40;99.90
17053;DHT22;8643;48.824;11.422;2024-03-02T08:32:42;7.30;99.90
17053;DHT22;8643;48.824;11.422;2024-03-02T08:35:12;7.40;99.90
17053;DHT22;8643;48.824;11.422;2024-03-02T08:37:42;7.30;99.90
17053;DHT22;8643;48.824;11.422;2024-03-02T08:40:12;7.20;99.90
17053;DHT22;8643;48.824;11.422;2024-03-02T08:42:45;7.30;99.90
17053;DHT22;8643;48.824;11.422;2024-03-02T08:45:14;7.40;99.90
17053;DHT22;8643;48.824;11.422;2024-03-02T08:47:43;7.40;99.90
17053;DHT22;8643;48.824;11.422;2024-03-02T08:50:13;7.30;99.90
17053;DHT22;8643;48.824;11.422;2024-03-02T08:52:43;7.20;99.90
17053;DHT22;8643;48.824;11.422;2024-03-02T08:55:11;7.10;99.90
17053;DHT22;8643;48.824;11.422;2024-03-02T08:57:40;7.10;99.90
17053;DHT22;8643;48.824;11.422;2024-03-02T09:00:10;7.00;99.90
17053;DHT22;8643;48.824;11.422;2024-03-02T09:02:39;7.10;99.90
17053;DHT22;8643;48.824;11.422;2024-03-02T09:05:08;7.90;99.90
17053;DHT22;8643;48.824;11.422;2024-03-02T09:07:37;7.20;99.90
17053;DHT22;8643;48.824;11.422;2024-03-02T09:10:08;7.20;99.90
17053;DHT22;8643;48.824;11.422;2024-03-02T09:12:37;7.10;99.90
17053;DHT22;8643;48.824;11.422;2024-03-02T09:15:07;7.20;99.90
17053;DHT22;8643;48.824;11.422;2024-03-02T09:17:36;7.30;99.90
17053;DHT22;8643;48.824;11.422;2024-03-02T09:20:05;7.30;99.90
17053;DHT22;8643;48.824;11.422;2024-03-02T09:22:35;7.30;99.90
17053;DHT22;8643;48.824;11.422;2024-03-02T09:25:04;7.30;99.90
17053;DHT22;8643;48.824;11.422;2024-03-02T09:27:37;7.50;99.90
17053;DHT22;8643;48.824;11.422;2024-03-02T09:30:08;7.70;99.90
17053;DHT22;8643;48.824;11.422;2024-03-02T09:32:38;7.70;99.90
17053;DHT22;8643;48.824;11.422;2024-03-02T09:35:07;8.20;99.90
17053;DHT22;8643;48.824;11.422;2024-03-02T09:40:05;8.30;99.90
17053;DHT22;8643;48.824;11.422;2024-03-02T09:42:36;8.40;99.90
17053;DHT22;8643;48.824;11.422;2024-03-02T09:45:06;8.40;99.90
17053;DHT22;8643;48.824;11.422;2024-03-02T09:47:35;8.10;99.90
17053;DHT22;8643;48.824;11.422;2024-03-02T09:50:05;8.10;99.90
17053;DHT22;8643;48.824;11.422;2024-03-02T09:52:35;8.20;99.90
17053;DHT22;8643;48.824;11.422;2024-03-02T09:55:06;8.20;99.90
17053;DHT22;8643;48.824;11.422;2024-03-02T09:57:37;8.20;99.90
17053;DHT22;8643;48.824;11.422;2024-03-02T10:00:08;8.30;99.90
17053;DHT22;8643;48.824;11.422;2024-03-02T10:02:42;8.30;99.90
17053;DHT22;8643;48.824;11.422;2024-03-02T10:05:11;8.50;99.90
17053;DHT22;8643;48.824;11.422;2024-03-02T10:07:40;8.50;99.90
17053;DHT22;8643;48.824;11.422;2024-03-02T10:10:15;8.50;99.90
17053;DHT22;8643;48.824;11.422;2024-03-02T10:12:45;8.70;99.90
17053;DHT22;8643;48.824;11.422;2024-03-02T10:15:23;8.70;99.90
17053;DHT22;8643;48.824;11.422;2024-03-02T10:17:52;8.70;99.90
17053;DHT22;8643;48.824;11.422;2024-03-02T10:20:21;8.80;99.90
17053;DHT22;8643;48.824;11.422;2024-03-02T10:22:51;8.80;99.90
17053;DHT22;8643;48.824;11.422;2024-03-02T10:25:30;8.80;99.90
17053;DHT22;8643;48.824;11.422;2024-03-02T10:28:18;8.80;99.90
17053;DHT22;8643;48.824;11.422;2024-03-02T10:30:47;8.80;99.90
17053;DHT22;8643;48.824;11.422;2024-03-02T10:33:18;8.70;99.90
17053;DHT22;8643;48.824;11.422;2024-03-02T10:35:48;8.80;99.90
17053;DHT22;8643;48.824;11.422;2024-03-02T10:38:18;8.80;99.90
17053;DHT22;8643;48.824;11.422;2024-03-02T10:40:48;8.90;99.90
17053;DHT22;8643;48.824;11.422;2024-03-02T10:43:19;9.10;99.90
17053;DHT22;8643;48.824;11.422;2024-03-02T10:45:49;9.20;99.90
17053;DHT22;8643;48.824;11.422;2024-03-02T10:48:19;9.20;99.90
17053;DHT22;8643;48.824;11.422;2024-03-02T10:50:48;9.30;99.90
17053;DHT22;8643;48.824;11.422;2024-03-02T10:53:18;9.30;99.90
17053;DHT22;8643;48.824;11.422;2024-03-02T10:55:53;9.50;99.90
17053;DHT22;8643;48.824;11.422;2024-03-02T10:58:32;9.50;99.90
17053;DHT22;8643;48.824;11.422;2024-03-02T11:01:03;9.40;99.90
17053;DHT22;8643;48.824;11.422;2024-03-02T11:03:35;9.40;99.90
17053;DHT22;8643;48.824;11.422;2024-03-02T11:06:07;9.50;99.90
17053;DHT22;8643;48.824;11.422;2024-03-02T11:08:38;9.70;99.90
17053;DHT22;8643;48.824;11.422;2024-03-02T11:11:15;9.90;99.90
17053;DHT22;8643;48.824;11.422;2024-03-02T11:13:50;10.00;99.90
17053;DHT22;8643;48.824;11.422;2024-03-02T11:16:27;10.50;99.90
17053;DHT22;8643;48.824;11.422;2024-03-02T11:19:04;10.50;99.90
17053;DHT22;8643;48.824;11.422;2024-03-02T11:21:35;10.90;99.90
17053;DHT22;8643;48.824;11.422;2024-03-02T11:24:28;10.90;99.90
17053;DHT22;8643;48.824;11.422;2024-03-02T11:27:05;10.80;99.90
17053;DHT22;8643;48.824;11.422;2024-03-02T11:29:45;10.90;99.90
17053;DHT22;8643;48.824;11.422;2024-03-02T11:32:18;11.00;99.90
17053;DHT22;8643;48.824;11.422;2024-03-02T11:34:51;11.10;99.90
17053;DHT22;8643;48.824;11.422;2024-03-02T11:37:20;11.30;99.90
17053;DHT22;8643;48.824;11.422;2024-03-02T11:39:50;11.60;99.90
17053;DHT22;8643;48.824;11.422;2024-03-02T11:42:19;11.60;99.90
17053;DHT22;8643;48.824;11.422;2024-03-02T11:44:50;12.50;99.90
17053;DHT22;8643;48.824;11.422;2024-03-02T11:47:18;12.50;99.90
17053;DHT22;8643;48.824;11.422;2024-03-02T11:49:50;13.00;99.90
17053;DHT22;8643;48.824;11.422;2024-03-02T11:52:19;13.00;99.90
17053;DHT22;8643;48.824;11.422;2024-03-02T11:54:48;13.00;99.90
17053;DHT22;8643;48.824;11.422;2024-03-02T11:57:19;13.10;99.90
17053;DHT22;8643;48.824;11.422;2024-03-02T11:59:51;13.00;99.90
17053;DHT22;8643;48.824;11.422;2024-03-02T12:02:20;13.30;99.90
17053;DHT22;8643;48.824;11.422;2024-03-02T12:04:50;13.00;99.90
17053;DHT22;8643;48.824;11.422;2024-03-02T12:07:19;13.20;99.90
17053;DHT22;8643;48.824;11.422;2024-03-02T12:09:58;13.30;99.90
17053;DHT22;8643;48.824;11.422;2024-03-02T12:12:29;13.30;99.90
17053;DHT22;8643;48.824;11.422;2024-03-02T12:14:59;13.30;99.90
17053;DHT22;8643;48.824;11.422;2024-03-02T12:17:29;13.20;99.90
17053;DHT22;8643;48.824;11.422;2024-03-02T12:19:59;13.50;99.90
17053;DHT22;8643;48.824;11.422;2024-03-02T12:22:31;13.60;99.90
17053;DHT22;8643;48.824;11.422;2024-03-02T12:24:59;13.60;99.90
17053;DHT22;8643;48.824;11.422;2024-03-02T12:27:28;13.60;99.90
17053;DHT22;8643;48.824;11.422;2024-03-02T12:29:58;14.40;99.90
17053;DHT22;8643;48.824;11.422;2024-03-02T12:32:27;14.70;99.90
17053;DHT22;8643;48.824;11.422;2024-03-02T12:34:56;15.10;99.90
17053;DHT22;8643;48.824;11.422;2024-03-02T12:37:24;15.10;99.90
17053;DHT22;8643;48.824;11.422;2024-03-02T12:39:54;15.60;99.90
17053;DHT22;8643;48.824;11.422;2024-03-02T12:42:24;15.30;99.90
17053;DHT22;8643;48.824;11.422;2024-03-02T12:44:52;15.10;99.90
17053;DHT22;8643;48.824;11.422;2024-03-02T12:47:23;14.90;99.90
17053;DHT22;8643;48.824;11.422;2024-03-02T12:49:52;14.60;99.90
17053;DHT22;8643;48.824;11.422;2024-03-02T12:52:21;14.50;99.90
17053;DHT22;8643;48.824;11.422;2024-03-02T12:54:50;14.50;99.90
17053;DHT22;8643;48.824;11.422;2024-03-02T12:57:19;14.90;99.90
17053;DHT22;8643;48.824;11.422;2024-03-02T12:59:48;14.90;99.90
17053;DHT22;8643;48.824;11.422;2024-03-02T13:02:18;14.70;99.90
17053;DHT22;8643;48.824;11.422;2024-03-02T13:04:53;14.70;99.90
17053;DHT22;8643;48.824;11.422;2024-03-02T13:07:23;14.70;99.90
17053;DHT22;8643;48.824;11.422;2024-03-02T13:09:52;15.00;99.90
17053;DHT22;8643;48.824;11.422;2024-03-02T13:12:23;15.10;99.90
17053;DHT22;8643;48.824;11.422;2024-03-02T13:14:52;15.40;99.90
17053;DHT22;8643;48.824;11.422;2024-03-02T13:17:21;16.00;99.90
17053;DHT22;8643;48.824;11.422;2024-03-02T13:19:55;16.10;99.90
17053;DHT22;8643;48.824;11.422;2024-03-02T13:22:25;15.80;99.90
17053;DHT22;8643;48.824;11.422;2024-03-02T13:24:54;15.60;99.90
17053;DHT22;8643;48.824;11.422;2024-03-02T13:27:23;15.60;99.90
17053;DHT22;8643;48.824;11.422;2024-03-02T13:29:51;15.50;99.90
17053;DHT22;8643;48.824;11.422;2024-03-02T13:32:20;15.70;99.90
17053;DHT22;8643;48.824;11.422;2024-03-02T13:34:51;16.00;99.90
17053;DHT22;8643;48.824;11.422;2024-03-02T13:37:21;15.60;99.90
17053;DHT22;8643;48.824;11.422;2024-03-02T13:39:50;15.50;99.90
17053;DHT22;8643;48.824;11.422;2024-03-02T13:42:19;15.40;99.90
17053;DHT22;8643;48.824;11.422;2024-03-02T13:44:48;15.40;99.90
17053;DHT22;8643;48.824;11.422;2024-03-02T13:47:18;15.50;99.90
17053;DHT22;8643;48.824;11.422;2024-03-02T13:49:48;15.80;99.90
17053;DHT22;8643;48.824;11.422;2024-03-02T13:52:17;16.00;99.90
17053;DHT22;8643;48.824;11.422;2024-03-02T13:54:48;16.10;99.90
17053;DHT22;8643;48.824;11.422;2024-03-02T13:57:19;15.80;99.90
17053;DHT22;8643;48.824;11.422;2024-03-02T13:59:53;15.50;99.90
17053;DHT22;8643;48.824;11.422;2024-03-02T14:02:22;15.50;99.90
17053;DHT22;8643;48.824;11.422;2024-03-02T14:04:50;15.80;99.90
17053;DHT22;8643;48.824;11.422;2024-03-02T14:07:19;15.40;99.90
17053;DHT22;8643;48.824;11.422;2024-03-02T14:09:49;15.30;99.90
17053;DHT22;8643;48.824;11.422;2024-03-02T14:12:18;15.10;99.90
17053;DHT22;8643;48.824;11.422;2024-03-02T14:14:46;15.20;99.90
17053;DHT22;8643;48.824;11.422;2024-03-02T14:17:15;14.80;99.90
17053;DHT22;8643;48.824;11.422;2024-03-02T14:19:44;14.80;99.90
17053;DHT22;8643;48.824;11.422;2024-03-02T14:24:44;15.30;99.90
17053;DHT22;8643;48.824;11.422;2024-03-02T14:27:15;14.90;99.90
17053;DHT22;8643;48.824;11.422;2024-03-02T14:30:04;14.60;99.90
17053;DHT22;8643;48.824;11.422;2024-03-02T14:32:33;14.70;99.90
17053;DHT22;8643;48.824;11.422;2024-03-02T14:35:02;14.70;99.90
17053;DHT22;8643;48.824;11.422;2024-03-02T14:37:31;14.50;99.90
17053;DHT22;8643;48.824;11.422;2024-03-02T14:40:00;14.50;99.90
17053;DHT22;8643;48.824;11.422;2024-03-02T14:42:30;14.50;99.90
17053;DHT22;8643;48.824;11.422;2024-03-02T14:44:59;14.50;99.90
17053;DHT22;8643;48.824;11.422;2024-03-02T14:47:30;14.60;99.90
17053;DHT22;8643;48.824;11.422;2024-03-02T14:50:00;14.60;99.90
17053;DHT22;8643;48.824;11.422;2024-03-02T14:52:32;14.70;99.90
17053;DHT22;8643;48.824;11.422;2024-03-02T14:55:00;14.80;99.90
17053;DHT22;8643;48.824;11.422;2024-03-02T14:57:32;14.80;99.90
17053;DHT22;8643;48.824;11.422;2024-03-02T15:00:00;14.60;99.90
17053;DHT22;8643;48.824;11.422;2024-03-02T15:02:29;14.70;99.90
17053;DHT22;8643;48.824;11.422;2024-03-02T15:04:57;14.70;99.90
17053;DHT22;8643;48.824;11.422;2024-03-02T15:07:26;14.30;99.90
17053;DHT22;8643;48.824;11.422;2024-03-02T15:09:54;14.30;99.90
17053;DHT22;8643;48.824;11.422;2024-03-02T15:12:23;14.10;99.90
17053;DHT22;8643;48.824;11.422;2024-03-02T15:14:53;13.70;99.90
17053;DHT22;8643;48.824;11.422;2024-03-02T15:17:22;13.60;99.90
17053;DHT22;8643;48.824;11.422;2024-03-02T15:19:50;13.50;99.90
17053;DHT22;8643;48.824;11.422;2024-03-02T15:22:19;13.30;99.90
17053;DHT22;8643;48.824;11.422;2024-03-02T15:24:47;13.10;99.90
17053;DHT22;8643;48.824;11.422;2024-03-02T15:27:16;13.00;99.90
17053;DHT22;8643;48.824;11.422;2024-03-02T15:29:44;13.00;99.90
17053;DHT22;8643;48.824;11.422;2024-03-02T15:32:16;12.90;99.90
17053;DHT22;8643;48.824;11.422;2024-03-02T15:34:44;12.80;99.90
17053;DHT22;8643;48.824;11.422;2024-03-02T15:37:13;12.80;99.90
17053;DHT22;8643;48.824;11.422;2024-03-02T15:39:42;12.40;99.90
17053;DHT22;8643;48.824;11.422;2024-03-02T15:42:12;12.40;99.90
17053;DHT22;8643;48.824;11.422;2024-03-02T15:44:40;12.40;99.90
17053;DHT22;8643;48.824;11.422;2024-03-02T15:47:11;12.70;99.90
17053;DHT22;8643;48.824;11.422;2024-03-02T15:49:41;12.60;99.90
17053;DHT22;8643;48.824;11.422;2024-03-02T15:54:41;12.20;99.90
17053;DHT22;8643;48.824;11.422;2024-03-02T15:57:10;12.30;99.90
17053;DHT22;8643;48.824;11.422;2024-03-02T15:59:40;12.20;99.90
17053;DHT22;8643;48.824;11.422;2024-03-02T16:02:09;12.20;99.90
17053;DHT22;8643;48.824;11.422;2024-03-02T16:04:38;12.00;99.90
17053;DHT22;8643;48.824;11.422;2024-03-02T16:07:08;11.90;99.90
17053;DHT22;8643;48.824;11.422;2024-03-02T16:09:37;11.90;99.90
17053;DHT22;8643;48.824;11.422;2024-03-02T16:12:06;11.70;99.90
17053;DHT22;8643;48.824;11.422;2024-03-02T16:14:35;11.60;99.90
17053;DHT22;8643;48.824;11.422;2024-03-02T16:17:04;11.10;99.90
17053;DHT22;8643;48.824;11.422;2024-03-02T16:19:36;10.80;99.90